createdAt,value
2023-05-18T00:00:54.482Z,12.14
2023-05-18T00:01:54.468Z,12.10
2023-05-18T00:02:54.561Z,12.09
2023-05-18T00:03:54.556Z,12.12
2023-05-18T00:04:54.671Z,12.10
2023-05-18T00:05:54.496Z,12.05
2023-05-18T00:06:54.489Z,12.02
2023-05-18T00:07:54.472Z,12.05
2023-05-18T00:08:54.479Z,12.05
2023-05-18T00:09:54.517Z,12.10
2023-05-18T00:10:54.461Z,12.12
2023-05-18T00:11:54.478Z,12.04
2023-05-18T00:12:54.475Z,12.01
2023-05-18T00:13:54.471Z,12.04
2023-05-18T00:14:54.471Z,11.99
2023-05-18T00:15:54.482Z,11.95
2023-05-18T00:16:54.458Z,11.85
2023-05-18T00:17:54.601Z,11.88
2023-05-18T00:18:54.476Z,11.79
2023-05-18T00:19:54.460Z,11.76
2023-05-18T00:20:54.462Z,11.90
2023-05-18T00:21:54.496Z,11.94
2023-05-18T00:22:54.460Z,11.90
2023-05-18T00:23:54.465Z,11.94
2023-05-18T00:24:54.563Z,11.94
2023-05-18T00:25:54.467Z,11.88
2023-05-18T00:26:54.466Z,11.88
2023-05-18T00:27:54.465Z,11.91
2023-05-18T00:28:54.509Z,11.88
2023-05-18T00:29:54.459Z,11.90
2023-05-18T00:30:54.455Z,11.85
2023-05-18T00:31:54.486Z,11.75
2023-05-18T00:32:54.638Z,11.86
2023-05-18T00:33:54.465Z,11.90
2023-05-18T00:34:54.459Z,11.96
2023-05-18T00:35:54.469Z,11.86
2023-05-18T00:36:54.456Z,11.96
2023-05-18T00:37:54.613Z,11.94
2023-05-18T00:38:54.459Z,11.99
2023-05-18T00:39:54.463Z,11.96
2023-05-18T00:40:54.456Z,11.98
2023-05-18T00:41:54.467Z,12.04
2023-05-18T00:42:54.476Z,11.90
2023-05-18T00:43:54.465Z,12.02
2023-05-18T00:44:54.458Z,11.99
2023-05-18T00:45:54.571Z,12.01
2023-05-18T00:46:54.458Z,11.95
2023-05-18T00:47:54.554Z,11.95
2023-05-18T00:48:54.451Z,11.99
2023-05-18T00:49:54.468Z,11.95
2023-05-18T00:50:54.462Z,11.91
2023-05-18T00:51:54.467Z,11.91
2023-05-18T00:52:54.453Z,11.96
2023-05-18T00:53:54.553Z,11.85
2023-05-18T00:54:54.457Z,11.90
2023-05-18T00:55:54.457Z,11.95
2023-05-18T00:56:54.455Z,11.76
2023-05-18T00:57:54.452Z,11.76
2023-05-18T00:58:54.463Z,11.73
2023-05-18T00:59:54.457Z,11.73
2023-05-18T01:00:54.494Z,11.79
2023-05-18T01:01:54.497Z,11.75
2023-05-18T01:02:54.583Z,11.76
2023-05-18T01:03:54.453Z,11.78
2023-05-18T01:04:54.452Z,11.80
2023-05-18T01:05:54.453Z,11.82
2023-05-18T01:06:54.446Z,11.73
2023-05-18T01:07:54.452Z,11.90
2023-05-18T01:08:54.445Z,11.90
2023-05-18T01:09:54.469Z,11.94
2023-05-18T01:10:54.455Z,11.95
2023-05-18T01:11:54.453Z,12.01
2023-05-18T01:12:54.442Z,11.94
2023-05-18T01:13:54.441Z,11.94
2023-05-18T01:14:54.441Z,11.91
2023-05-18T01:15:54.480Z,11.88
2023-05-18T01:16:54.502Z,11.88
2023-05-18T01:17:54.451Z,11.79
2023-05-18T01:18:54.484Z,11.85
2023-05-18T01:19:54.450Z,11.86
2023-05-18T01:20:54.439Z,11.88
2023-05-18T01:21:54.440Z,11.90
2023-05-18T01:22:54.437Z,11.88
2023-05-18T01:23:54.447Z,11.85
2023-05-18T01:24:54.434Z,11.79
2023-05-18T01:25:54.532Z,11.86
2023-05-18T01:26:54.436Z,11.88
2023-05-18T01:27:54.440Z,11.91
2023-05-18T01:28:54.433Z,11.91
2023-05-18T01:29:54.447Z,11.86
2023-05-18T01:30:54.487Z,11.83
2023-05-18T01:31:54.438Z,11.90
2023-05-18T01:32:54.506Z,11.95
2023-05-18T01:33:54.450Z,12.01
2023-05-18T01:34:54.438Z,11.96
2023-05-18T01:35:54.440Z,12.01
2023-05-18T01:36:54.428Z,11.94
2023-05-18T01:37:54.435Z,11.95
2023-05-18T01:38:54.425Z,12.01
2023-05-18T01:39:54.429Z,11.91
2023-05-18T01:40:54.448Z,11.95
2023-05-18T01:41:54.455Z,12.01
2023-05-18T01:42:54.425Z,12.04
2023-05-18T01:43:54.428Z,12.07
2023-05-18T01:44:54.423Z,12.04
2023-05-18T01:47:38.260Z,12.02
2023-05-18T01:48:38.163Z,12.02
2023-05-18T01:49:38.161Z,12.05
2023-05-18T01:50:38.158Z,12.05
2023-05-18T01:51:38.150Z,12.09
2023-05-18T01:52:38.168Z,12.10
2023-05-18T01:53:38.155Z,12.12
2023-05-18T01:54:38.144Z,12.20
2023-05-18T01:55:38.142Z,12.27
2023-05-18T01:56:38.150Z,12.14
2023-05-18T01:57:38.176Z,12.21
2023-05-18T01:58:38.145Z,12.31
2023-05-18T01:59:38.140Z,12.34
2023-05-18T02:00:38.141Z,12.31
2023-05-18T02:01:38.193Z,12.39
2023-05-18T02:02:38.263Z,12.38
2023-05-18T02:03:38.232Z,12.42
2023-05-18T02:04:38.141Z,12.37
2023-05-18T02:05:38.140Z,12.41
2023-05-18T02:06:38.135Z,12.50
2023-05-18T02:07:38.138Z,12.50
2023-05-18T02:08:38.138Z,12.45
2023-05-18T02:09:38.138Z,12.47
2023-05-18T02:10:38.135Z,12.54
2023-05-18T02:11:38.131Z,12.53
2023-05-18T02:12:38.136Z,12.71
2023-05-18T02:13:38.154Z,12.68
2023-05-18T02:14:38.130Z,12.72
2023-05-18T02:15:38.126Z,12.82
2023-05-18T02:16:38.188Z,12.79
2023-05-18T02:17:38.301Z,12.86
2023-05-18T02:18:38.139Z,12.93
2023-05-18T02:19:38.246Z,12.87
2023-05-18T02:20:38.145Z,12.87
2023-05-18T02:21:38.128Z,12.86
2023-05-18T02:22:38.121Z,12.90
2023-05-18T02:23:38.117Z,12.92
2023-05-18T02:24:38.121Z,12.90
2023-05-18T02:25:38.118Z,12.92
2023-05-18T02:26:38.121Z,12.89
2023-05-18T02:27:38.125Z,12.78
2023-05-18T02:28:38.121Z,12.75
2023-05-18T02:29:38.239Z,12.70
2023-05-18T02:30:38.115Z,12.72
2023-05-18T02:31:38.190Z,12.68
2023-05-18T02:32:38.159Z,12.59
2023-05-18T02:33:38.111Z,12.57
2023-05-18T02:34:38.115Z,12.57
2023-05-18T02:35:38.119Z,12.54
2023-05-18T02:36:38.114Z,12.49
2023-05-18T02:37:38.112Z,12.46
2023-05-18T02:38:38.122Z,12.49
2023-05-18T02:39:38.112Z,12.46
2023-05-18T02:40:38.118Z,12.53
2023-05-18T02:41:38.106Z,12.47
2023-05-18T02:42:38.107Z,12.37
2023-05-18T02:43:38.106Z,12.39
2023-05-18T02:44:38.107Z,12.31
2023-05-18T02:45:38.148Z,12.31
2023-05-18T02:46:38.112Z,12.24
2023-05-18T02:47:38.131Z,12.12
2023-05-18T02:48:38.126Z,12.14
2023-05-18T02:49:38.120Z,12.10
2023-05-18T02:50:38.120Z,12.05
2023-05-18T02:51:38.109Z,12.07
2023-05-18T02:52:38.106Z,11.96
2023-05-18T02:53:38.101Z,11.88
2023-05-18T02:54:38.124Z,11.90
2023-05-18T02:55:38.104Z,11.80
2023-05-18T02:56:38.102Z,11.88
2023-05-18T02:57:38.102Z,11.88
2023-05-18T02:58:38.109Z,11.76
2023-05-18T02:59:38.113Z,11.73
2023-05-18T03:00:38.112Z,11.78
2023-05-18T03:01:38.187Z,11.83
2023-05-18T03:02:38.163Z,11.83
2023-05-18T03:03:38.160Z,11.86
2023-05-18T03:04:38.107Z,11.88
2023-05-18T03:05:38.099Z,11.88
2023-05-18T03:06:38.100Z,11.94
2023-05-18T03:07:38.097Z,11.95
2023-05-18T03:08:38.099Z,11.96
2023-05-18T03:09:38.098Z,11.88
2023-05-18T03:10:38.105Z,11.80
2023-05-18T03:11:38.095Z,11.78
2023-05-18T03:12:38.104Z,11.72
2023-05-18T03:13:38.098Z,11.69
2023-05-18T03:14:38.092Z,11.67
2023-05-18T03:15:38.092Z,11.72
2023-05-18T03:16:38.194Z,11.76
2023-05-18T03:17:38.216Z,11.51
2023-05-18T03:18:38.163Z,11.52
2023-05-18T03:19:38.095Z,11.51
2023-05-18T03:20:38.136Z,11.42
2023-05-18T03:21:38.110Z,11.39
2023-05-18T03:22:38.100Z,11.37
2023-05-18T03:23:38.105Z,11.29
2023-05-18T03:24:38.093Z,11.27
2023-05-18T03:25:38.084Z,11.22
2023-05-18T03:26:38.091Z,11.15
2023-05-18T03:27:38.096Z,11.18
2023-05-18T03:28:38.093Z,11.22
2023-05-18T03:29:38.085Z,11.19
2023-05-18T03:30:38.085Z,11.15
2023-05-18T03:31:38.159Z,11.18
2023-05-18T03:32:38.229Z,11.17
2023-05-18T03:33:38.173Z,11.09
2023-05-18T03:34:38.082Z,11.09
2023-05-18T03:35:38.085Z,11.17
2023-05-18T03:36:38.087Z,11.21
2023-05-18T03:37:38.082Z,11.14
2023-05-18T03:38:38.077Z,11.19
2023-05-18T03:39:38.078Z,11.14
2023-05-18T03:40:38.077Z,11.25
2023-05-18T03:41:38.082Z,11.18
2023-05-18T03:42:38.079Z,11.21
2023-05-18T03:43:38.080Z,11.18
2023-05-18T03:44:38.133Z,11.11
2023-05-18T03:45:38.077Z,11.09
2023-05-18T03:46:38.131Z,11.03
2023-05-18T03:47:38.126Z,11.03
2023-05-18T03:48:38.093Z,10.96
2023-05-18T03:49:38.099Z,10.86
2023-05-18T03:50:38.074Z,10.82
2023-05-18T03:51:38.073Z,10.85
2023-05-18T03:52:38.070Z,10.96
2023-05-18T03:53:38.067Z,10.97
2023-05-18T03:54:38.073Z,11.07
2023-05-18T03:55:38.070Z,10.91
2023-05-18T03:56:38.066Z,10.92
2023-05-18T03:57:38.083Z,10.85
2023-05-18T03:58:38.064Z,10.78
2023-05-18T03:59:38.063Z,10.78
2023-05-18T04:00:38.071Z,10.81
2023-05-18T04:01:38.113Z,10.61
2023-05-18T04:02:38.321Z,10.56
2023-05-18T04:03:38.219Z,10.48
2023-05-18T04:04:38.054Z,10.53
2023-05-18T04:05:38.079Z,10.48
2023-05-18T04:06:38.074Z,10.51
2023-05-18T04:07:38.062Z,10.56
2023-05-18T04:08:38.071Z,10.48
2023-05-18T04:09:38.069Z,10.56
2023-05-18T04:10:38.056Z,10.60
2023-05-18T04:11:38.052Z,10.61
2023-05-18T04:12:38.060Z,10.60
2023-05-18T04:13:38.056Z,10.52
2023-05-18T04:14:38.053Z,10.53
2023-05-18T04:15:38.092Z,10.53
2023-05-18T04:16:38.086Z,10.68
2023-05-18T04:17:38.093Z,10.63
2023-05-18T04:18:38.052Z,10.59
2023-05-18T04:19:38.208Z,10.78
2023-05-18T04:20:38.063Z,10.78
2023-05-18T04:21:38.073Z,10.79
2023-05-18T04:22:38.050Z,10.78
2023-05-18T04:23:38.044Z,10.82
2023-05-18T04:24:38.044Z,10.79
2023-05-18T04:25:38.042Z,10.86
2023-05-18T04:26:38.048Z,10.86
2023-05-18T04:27:38.039Z,10.88
2023-05-18T04:28:38.038Z,10.91
2023-05-18T04:29:38.034Z,10.85
2023-05-18T04:30:38.034Z,10.92
2023-05-18T04:31:38.114Z,11.03
2023-05-18T04:32:38.196Z,11.03
2023-05-18T04:33:38.046Z,11.11
2023-05-18T04:34:38.094Z,11.18
2023-05-18T04:35:38.040Z,11.15
2023-05-18T04:36:38.029Z,11.35
2023-05-18T04:37:38.057Z,11.35
2023-05-18T04:38:38.035Z,11.39
2023-05-18T04:39:38.025Z,11.27
2023-05-18T04:40:38.044Z,11.40
2023-05-18T04:41:38.020Z,11.52
2023-05-18T04:42:38.028Z,11.57
2023-05-18T04:43:38.035Z,11.46
2023-05-18T04:44:38.028Z,11.57
2023-05-18T04:45:38.040Z,11.75
2023-05-18T04:46:38.022Z,11.69
2023-05-18T04:47:38.135Z,11.76
2023-05-18T04:48:38.018Z,11.85
2023-05-18T04:49:38.014Z,11.86
2023-05-18T04:50:38.026Z,11.96
2023-05-18T04:51:38.016Z,11.99
2023-05-18T04:52:38.016Z,11.98
2023-05-18T04:53:38.044Z,12.04
2023-05-18T04:54:38.008Z,12.10
2023-05-18T04:55:38.010Z,12.16
2023-05-18T04:56:38.012Z,12.09
2023-05-18T04:57:38.008Z,12.14
2023-05-18T04:58:38.014Z,12.21
2023-05-18T04:59:38.005Z,12.17
2023-05-18T05:00:38.010Z,12.32
2023-05-18T05:01:38.059Z,12.37
2023-05-18T05:02:38.057Z,12.46
2023-05-18T05:03:38.044Z,12.46
2023-05-18T05:04:38.036Z,12.50
2023-05-18T05:05:38.015Z,12.59
2023-05-18T05:06:38.004Z,12.64
2023-05-18T05:07:37.994Z,12.62
2023-05-18T05:08:38.003Z,12.67
2023-05-18T05:09:38.028Z,12.71
2023-05-18T05:10:38.047Z,12.67
2023-05-18T05:11:37.985Z,12.74
2023-05-18T05:12:37.993Z,12.78
2023-05-18T05:13:37.988Z,12.82
2023-05-18T05:14:37.990Z,12.86
2023-05-18T05:15:38.043Z,12.79
2023-05-18T05:16:37.993Z,12.71
2023-05-18T05:17:38.007Z,12.75
2023-05-18T05:18:38.028Z,12.79
2023-05-18T05:19:37.981Z,12.82
2023-05-18T05:20:37.995Z,12.95
2023-05-18T05:21:37.984Z,13.01
2023-05-18T05:22:38.030Z,13.01
2023-05-18T05:23:37.984Z,13.10
2023-05-18T05:24:37.980Z,13.12
2023-05-18T05:25:38.034Z,13.11
2023-05-18T05:26:38.002Z,13.17
2023-05-18T05:27:37.972Z,13.12
2023-05-18T05:28:37.985Z,13.22
2023-05-18T05:29:37.975Z,13.26
2023-05-18T05:30:37.979Z,13.20
2023-05-18T05:31:38.065Z,13.23
2023-05-18T05:32:38.064Z,13.30
2023-05-18T05:33:37.973Z,13.29
2023-05-18T05:34:37.973Z,13.42
2023-05-18T05:35:38.295Z,13.36
2023-05-18T05:36:37.974Z,13.41
2023-05-18T05:37:37.963Z,13.39
2023-05-18T05:38:37.982Z,13.38
2023-05-18T05:39:37.970Z,13.48
2023-05-18T05:40:37.967Z,13.51
2023-05-18T05:41:37.988Z,13.59
2023-05-18T05:42:37.975Z,13.64
2023-05-18T05:43:37.973Z,13.59
2023-05-18T05:44:37.970Z,13.69
2023-05-18T05:45:37.963Z,13.71
2023-05-18T05:46:38.037Z,13.77
2023-05-18T05:47:38.030Z,13.84
2023-05-18T05:48:37.973Z,13.82
2023-05-18T05:49:37.966Z,13.91
2023-05-18T05:50:37.965Z,13.91
2023-05-18T05:51:37.962Z,14.03
2023-05-18T05:52:37.964Z,14.07
2023-05-18T05:53:37.957Z,14.20
2023-05-18T05:54:37.960Z,14.15
2023-05-18T05:55:37.961Z,14.20
2023-05-18T05:56:37.966Z,14.17
2023-05-18T05:57:38.038Z,14.28
2023-05-18T05:58:37.970Z,14.17
2023-05-18T05:59:37.955Z,14.27
2023-05-18T06:00:37.961Z,14.32
2023-05-18T06:01:37.985Z,14.42
2023-05-18T06:02:38.217Z,14.40
2023-05-18T06:03:38.026Z,14.45
2023-05-18T06:04:38.008Z,14.39
2023-05-18T06:05:37.959Z,14.40
2023-05-18T06:06:37.956Z,14.54
2023-05-18T06:07:37.965Z,14.65
2023-05-18T06:08:37.951Z,14.64
2023-05-18T06:09:37.964Z,14.61
2023-05-18T06:10:37.982Z,14.75
2023-05-18T06:11:37.976Z,14.75
2023-05-18T06:12:37.956Z,14.78
2023-05-18T06:13:37.971Z,14.88
2023-05-18T06:14:37.957Z,14.96
2023-05-18T06:15:37.957Z,15.03
2023-05-18T06:16:37.993Z,15.06
2023-05-18T06:17:37.963Z,15.09
2023-05-18T06:18:37.975Z,15.14
2023-05-18T06:19:37.953Z,15.07
2023-05-18T06:20:37.945Z,15.13
2023-05-18T06:21:37.951Z,15.27
2023-05-18T06:22:37.950Z,15.31
2023-05-18T06:23:40.287Z,15.32
2023-05-18T06:24:37.952Z,15.31
2023-05-18T06:25:37.965Z,15.41
2023-05-18T06:26:37.951Z,15.43
2023-05-18T06:27:37.951Z,15.41
2023-05-18T06:28:37.947Z,15.44
2023-05-18T06:29:37.987Z,15.60
2023-05-18T06:30:37.946Z,15.69
2023-05-18T06:31:38.011Z,15.72
2023-05-18T06:32:37.960Z,15.74
2023-05-18T06:33:37.948Z,15.71
2023-05-18T06:34:37.940Z,15.87
2023-05-18T06:35:37.943Z,15.84
2023-05-18T06:36:37.946Z,15.87
2023-05-18T06:37:37.947Z,15.89
2023-05-18T06:38:37.944Z,15.94
2023-05-18T06:39:37.954Z,16.01
2023-05-18T06:40:37.947Z,15.89
2023-05-18T06:41:37.952Z,15.96
2023-05-18T06:42:37.941Z,16.11
2023-05-18T06:43:37.947Z,16.11
2023-05-18T06:44:37.968Z,16.15
2023-05-18T06:45:38.338Z,16.14
2023-05-18T06:46:38.097Z,16.28
2023-05-18T06:47:38.028Z,16.38
2023-05-18T06:48:37.945Z,16.20
2023-05-18T06:49:37.946Z,16.35
2023-05-18T06:50:37.941Z,16.42
2023-05-18T06:51:37.952Z,16.53
2023-05-18T06:52:37.944Z,16.61
2023-05-18T06:53:37.950Z,16.68
2023-05-18T06:54:37.937Z,16.76
2023-05-18T06:55:37.946Z,16.70
2023-05-18T06:56:37.943Z,16.73
2023-05-18T06:57:37.955Z,16.81
2023-05-18T06:58:37.940Z,16.79
2023-05-18T06:59:37.962Z,16.85
2023-05-18T07:00:37.942Z,17.01
2023-05-18T07:01:38.041Z,16.98
2023-05-18T07:02:37.983Z,17.12
2023-05-18T07:03:37.981Z,17.18
2023-05-18T07:04:37.949Z,17.18
2023-05-18T07:05:39.459Z,17.06
2023-05-18T07:06:37.942Z,17.07
2023-05-18T07:07:38.048Z,17.01
2023-05-18T07:08:37.953Z,17.06
2023-05-18T07:09:37.946Z,17.11
2023-05-18T07:10:37.938Z,17.18
2023-05-18T07:11:37.962Z,17.33
2023-05-18T07:12:37.942Z,17.54
2023-05-18T07:13:37.953Z,17.62
2023-05-18T07:14:37.943Z,17.63
2023-05-18T07:15:37.993Z,17.77
2023-05-18T07:16:38.024Z,17.82
2023-05-18T07:17:37.997Z,18.02
2023-05-18T07:18:37.987Z,17.93
2023-05-18T07:19:37.944Z,17.82
2023-05-18T07:20:37.945Z,17.82
2023-05-18T07:21:37.952Z,17.66
2023-05-18T07:22:37.948Z,17.66
2023-05-18T07:23:37.962Z,17.71
2023-05-18T07:24:37.955Z,17.84
2023-05-18T07:25:37.947Z,17.96
2023-05-18T07:26:37.946Z,18.10
2023-05-18T07:27:37.942Z,18.30
2023-05-18T07:28:37.957Z,18.32
2023-05-18T07:29:37.954Z,18.44
2023-05-18T07:30:37.946Z,18.54
2023-05-18T07:31:37.996Z,18.84
2023-05-18T07:32:37.989Z,18.91
2023-05-18T07:33:40.426Z,19.23
2023-05-18T07:34:37.952Z,19.14
2023-05-18T07:35:37.951Z,19.33
2023-05-18T07:36:37.943Z,19.51
2023-05-18T07:37:37.948Z,19.87
2023-05-18T07:38:37.947Z,19.95
2023-05-18T07:39:37.956Z,19.99
2023-05-18T07:40:37.946Z,19.91
2023-05-18T07:41:37.949Z,19.73
2023-05-18T07:42:37.947Z,19.58
2023-05-18T07:43:37.998Z,19.32
2023-05-18T07:44:37.948Z,19.26
2023-05-18T07:45:37.954Z,19.08
2023-05-18T07:46:38.038Z,19.16
2023-05-18T07:47:37.972Z,19.08
2023-05-18T07:48:40.501Z,19.29
2023-05-18T07:49:37.986Z,19.98
2023-05-18T07:50:37.960Z,19.99
2023-05-18T07:51:37.955Z,19.87
2023-05-18T07:52:37.954Z,19.80
2023-05-18T07:53:38.002Z,19.80
2023-05-18T07:54:37.957Z,19.92
2023-05-18T07:55:37.962Z,20.85
2023-05-18T07:56:37.972Z,21.90
2023-05-18T07:57:37.975Z,22.68
2023-05-18T07:58:37.964Z,23.19
2023-05-18T07:59:37.967Z,23.07
2023-05-18T08:00:37.962Z,23.55
2023-05-18T08:01:38.036Z,23.97
2023-05-18T08:02:38.216Z,24.28
2023-05-18T08:03:38.050Z,24.71
2023-05-18T08:04:37.967Z,25.35
2023-05-18T08:05:38.007Z,25.64
2023-05-18T08:06:37.982Z,26.07
2023-05-18T08:07:38.044Z,26.65
2023-05-18T08:08:38.010Z,27.25
2023-05-18T08:09:37.991Z,26.94
2023-05-18T08:10:37.984Z,27.19
2023-05-18T08:11:37.990Z,27.28
2023-05-18T08:12:37.995Z,27.63
2023-05-18T08:13:37.995Z,27.79
2023-05-18T08:14:37.997Z,28.02
2023-05-18T08:15:38.006Z,28.49
2023-05-18T08:16:38.055Z,29.11
2023-05-18T08:17:38.036Z,29.64
2023-05-18T08:18:38.073Z,29.28
2023-05-18T08:19:39.800Z,29.27
2023-05-18T08:20:38.021Z,28.95
2023-05-18T08:21:38.075Z,28.21
2023-05-18T08:22:38.036Z,28.43
2023-05-18T08:23:38.054Z,28.39
2023-05-18T08:24:38.050Z,27.74
2023-05-18T08:25:38.059Z,27.02
2023-05-18T08:26:38.063Z,26.26
2023-05-18T08:27:38.072Z,25.75
2023-05-18T08:28:38.074Z,25.24
2023-05-18T08:29:38.091Z,24.78
2023-05-18T08:30:38.079Z,24.40
2023-05-18T08:31:38.129Z,24.09
2023-05-18T08:32:38.201Z,23.83
2023-05-18T08:33:38.109Z,23.65
2023-05-18T08:34:38.120Z,23.02
2023-05-18T08:35:38.121Z,22.68
2023-05-18T08:36:38.121Z,22.54
2023-05-18T08:37:38.155Z,22.36
2023-05-18T08:38:38.172Z,22.30
2023-05-18T08:39:38.144Z,22.40
2023-05-18T08:40:38.156Z,23.23
2023-05-18T08:41:38.159Z,23.35
2023-05-18T08:42:49.487Z,23.80
2023-05-18T08:43:38.158Z,23.84
2023-05-18T08:44:38.168Z,23.69
2023-05-18T08:45:38.178Z,23.83
2023-05-18T08:46:38.175Z,23.53
2023-05-18T08:47:38.211Z,23.20
2023-05-18T08:48:38.315Z,23.23
2023-05-18T08:49:38.196Z,23.07
2023-05-18T08:50:38.199Z,22.72
2023-05-18T08:51:38.223Z,22.36
2023-05-18T08:52:38.211Z,22.17
2023-05-18T08:53:38.298Z,22.21
2023-05-18T08:54:38.219Z,22.21
2023-05-18T08:55:38.223Z,22.21
2023-05-18T08:56:38.226Z,22.83
2023-05-18T08:57:38.267Z,23.73
2023-05-18T08:58:38.238Z,24.49
2023-05-18T08:59:38.246Z,25.39
2023-05-18T09:00:38.268Z,25.99
2023-05-18T09:01:38.358Z,26.06
2023-05-18T09:02:38.287Z,26.09
2023-05-18T09:03:38.290Z,26.44
2023-05-18T09:04:38.498Z,26.07
2023-05-18T09:05:38.286Z,25.98
2023-05-18T09:06:38.295Z,26.45
2023-05-18T09:07:38.339Z,26.50
2023-05-18T09:08:38.309Z,26.28
2023-05-18T09:09:38.364Z,25.99
2023-05-18T09:10:38.336Z,25.76
2023-05-18T09:11:38.339Z,25.54
2023-05-18T09:12:38.329Z,25.28
2023-05-18T09:13:38.360Z,25.13
2023-05-18T09:14:38.354Z,24.85
2023-05-18T09:15:38.378Z,24.83
2023-05-18T09:16:38.405Z,25.21
2023-05-18T09:17:38.470Z,25.87
2023-05-18T09:18:38.408Z,26.50
2023-05-18T09:19:38.389Z,27.25
2023-05-18T09:20:38.399Z,27.59
2023-05-18T09:21:38.406Z,28.68
2023-05-18T09:22:38.413Z,29.36
2023-05-18T09:23:38.424Z,29.95
2023-05-18T09:24:38.433Z,30.47
2023-05-18T09:25:38.468Z,30.45
2023-05-18T09:26:38.462Z,30.39
2023-05-18T09:27:38.496Z,30.35
2023-05-18T09:28:38.480Z,30.39
2023-05-18T09:29:38.486Z,30.23
2023-05-18T09:30:38.511Z,29.33
2023-05-18T09:31:38.598Z,28.66
2023-05-18T09:32:38.560Z,27.70
2023-05-18T09:33:38.726Z,27.29
2023-05-18T09:34:38.540Z,26.75
2023-05-18T09:35:39.224Z,26.44
2023-05-18T09:36:38.560Z,26.12
2023-05-18T09:37:38.655Z,25.54
2023-05-18T09:38:38.584Z,25.65
2023-05-18T09:39:38.596Z,25.42
2023-05-18T09:40:38.605Z,25.20
2023-05-18T09:41:38.645Z,25.39
2023-05-18T09:42:38.635Z,25.28
2023-05-18T09:43:38.638Z,24.88
2023-05-18T09:44:38.648Z,24.85
2023-05-18T09:45:38.655Z,24.77
2023-05-18T09:46:38.704Z,24.71
2023-05-18T09:47:38.688Z,24.34
2023-05-18T09:48:38.691Z,24.24
2023-05-18T09:49:38.699Z,24.18
2023-05-18T09:50:38.701Z,23.80
2023-05-18T09:51:38.713Z,23.95
2023-05-18T09:52:38.716Z,23.95
2023-05-18T09:53:38.733Z,23.84
2023-05-18T09:54:38.736Z,23.79
2023-05-18T09:55:38.767Z,23.76
2023-05-18T09:56:38.755Z,23.61
2023-05-18T09:57:38.877Z,23.22
2023-05-18T09:58:38.770Z,23.05
2023-05-18T09:59:38.790Z,23.23
2023-05-18T10:00:38.827Z,23.69
2023-05-18T10:01:38.798Z,24.53
2023-05-18T10:02:38.844Z,25.00
2023-05-18T10:03:38.809Z,24.58
2023-05-18T10:04:38.859Z,24.24
2023-05-18T10:05:39.062Z,24.24
2023-05-18T10:06:38.830Z,23.97
2023-05-18T10:07:38.847Z,23.84
2023-05-18T10:08:38.847Z,23.72
2023-05-18T10:09:38.862Z,23.54
2023-05-18T10:10:38.860Z,23.55
2023-05-18T10:11:38.876Z,23.61
2023-05-18T10:12:38.880Z,23.91
2023-05-18T10:13:38.960Z,24.24
2023-05-18T10:14:38.895Z,24.47
2023-05-18T10:15:38.893Z,25.23
2023-05-18T10:16:38.926Z,25.33
2023-05-18T10:17:39.054Z,25.67
2023-05-18T10:18:39.091Z,25.92
2023-05-18T10:19:38.925Z,26.63
2023-05-18T10:20:38.937Z,26.77
2023-05-18T10:21:38.941Z,27.43
2023-05-18T10:22:38.950Z,27.43
2023-05-18T10:23:38.954Z,28.18
2023-05-18T10:24:38.968Z,28.78
2023-05-18T10:25:38.972Z,29.57
2023-05-18T10:26:38.984Z,30.23
2023-05-18T10:27:38.996Z,30.70
2023-05-18T10:28:38.999Z,31.38
2023-05-18T10:29:39.062Z,32.06
2023-05-18T10:30:39.050Z,32.62
2023-05-18T10:31:39.039Z,32.88
2023-05-18T10:32:39.079Z,32.94
2023-05-18T10:33:39.114Z,32.77
2023-05-18T10:34:39.068Z,32.87
2023-05-18T10:35:39.083Z,32.51
2023-05-18T10:36:39.096Z,32.30
2023-05-18T10:37:39.107Z,32.18
2023-05-18T10:39:51.741Z,33.11
2023-05-18T10:43:47.700Z,32.57
2023-05-18T10:44:47.751Z,32.56
2023-05-18T10:45:47.736Z,32.28
2023-05-18T10:46:47.893Z,32.07
2023-05-18T10:47:47.871Z,31.69
2023-05-18T10:48:48.044Z,32.06
2023-05-18T10:49:47.811Z,31.65
2023-05-18T10:50:47.809Z,31.96
2023-05-18T10:51:47.826Z,32.32
2023-05-18T10:52:47.841Z,32.04
2023-05-18T10:53:47.866Z,31.43
2023-05-18T10:54:47.869Z,30.26
2023-05-18T10:55:47.881Z,29.21
2023-05-18T10:56:47.981Z,28.21
2023-05-18T10:57:47.922Z,27.22
2023-05-18T10:58:47.929Z,27.02
2023-05-18T10:59:48.509Z,26.65
2023-05-18T11:00:48.099Z,26.39
2023-05-18T11:01:48.019Z,25.97
2023-05-18T11:02:48.052Z,25.98
2023-05-18T11:03:48.009Z,25.95
2023-05-18T11:04:48.167Z,25.95
2023-05-18T11:05:48.028Z,26.12
2023-05-18T11:06:48.046Z,26.23
2023-05-18T11:07:48.055Z,26.37
2023-05-18T11:08:48.158Z,26.32
2023-05-18T11:09:48.088Z,26.12
2023-05-18T11:10:48.101Z,25.90
2023-05-18T11:11:48.115Z,25.76
2023-05-18T11:12:48.126Z,25.50
2023-05-18T11:13:48.156Z,25.15
2023-05-18T11:14:48.146Z,24.78
2023-05-18T11:15:48.184Z,24.55
2023-05-18T11:16:48.324Z,24.46
2023-05-18T11:17:48.235Z,24.49
2023-05-18T11:18:48.221Z,24.47
2023-05-18T11:19:48.200Z,24.67
2023-05-18T11:20:48.210Z,24.64
2023-05-18T11:21:48.217Z,24.81
2023-05-18T11:22:48.232Z,24.81
2023-05-18T11:23:48.239Z,24.80
2023-05-18T11:24:48.253Z,24.80
2023-05-18T11:25:48.256Z,24.84
2023-05-18T11:26:48.276Z,24.98
2023-05-18T11:27:48.274Z,25.25
2023-05-18T11:28:49.697Z,25.98
2023-05-18T11:29:48.300Z,27.13
2023-05-18T11:30:48.322Z,28.34
2023-05-18T11:31:48.371Z,29.46
2023-05-18T11:32:48.379Z,30.29
2023-05-18T11:33:48.397Z,31.12
2023-05-18T11:34:48.346Z,31.69
2023-05-18T11:35:48.352Z,32.40
2023-05-18T11:36:48.362Z,32.01
2023-05-18T11:37:48.373Z,31.85
2023-05-18T11:38:48.388Z,32.41
2023-05-18T11:39:58.418Z,32.74
2023-05-18T11:40:48.405Z,32.78
2023-05-18T11:41:48.408Z,31.92
2023-05-18T11:42:48.428Z,30.92
2023-05-18T11:43:48.431Z,30.80
2023-05-18T11:44:48.441Z,30.43
2023-05-18T11:45:48.452Z,29.39
2023-05-18T11:46:48.467Z,28.46
2023-05-18T11:47:48.535Z,28.49
2023-05-18T11:48:48.686Z,28.95
2023-05-18T11:49:48.491Z,29.61
2023-05-18T11:50:48.499Z,29.37
2023-05-18T11:51:48.506Z,29.18
2023-05-18T11:52:48.533Z,29.65
2023-05-18T11:53:48.534Z,29.45
2023-05-18T11:54:48.537Z,29.19
2023-05-18T11:55:48.557Z,29.26
2023-05-18T11:56:48.577Z,29.57
2023-05-18T11:57:48.566Z,29.43
2023-05-18T11:58:48.580Z,29.21
2023-05-18T11:59:48.588Z,29.06
2023-05-18T12:00:48.611Z,28.68
2023-05-18T12:01:48.632Z,28.27
2023-05-18T12:02:48.784Z,27.77
2023-05-18T12:03:48.864Z,27.97
2023-05-18T12:04:48.675Z,28.40
2023-05-18T12:05:48.636Z,28.98
2023-05-18T12:06:48.649Z,29.94
2023-05-18T12:07:48.662Z,30.97
2023-05-18T12:08:48.681Z,31.35
2023-05-18T12:09:48.679Z,32.15
2023-05-18T12:10:48.687Z,32.70
2023-05-18T12:11:48.701Z,33.50
2023-05-18T12:12:48.707Z,34.08
2023-05-18T12:13:48.711Z,34.85
2023-05-18T12:14:48.734Z,35.33
2023-05-18T12:15:48.731Z,35.71
2023-05-18T12:16:48.811Z,36.23
2023-05-18T12:17:48.784Z,35.31
2023-05-18T12:18:48.865Z,35.33
2023-05-18T12:19:48.765Z,35.55
2023-05-18T12:20:48.802Z,34.89
2023-05-18T12:21:48.785Z,34.46
2023-05-18T12:22:48.819Z,33.88
2023-05-18T12:23:48.805Z,33.82
2023-05-18T12:24:48.813Z,33.38
2023-05-18T12:25:48.822Z,33.53
2023-05-18T12:26:48.848Z,33.54
2023-05-18T12:27:48.838Z,33.59
2023-05-18T12:28:48.856Z,33.68
2023-05-18T12:29:48.861Z,33.38
2023-05-18T12:30:48.904Z,33.04
2023-05-18T12:31:48.880Z,32.48
2023-05-18T12:32:48.988Z,32.48
2023-05-18T12:33:48.900Z,33.11
2023-05-18T12:34:48.912Z,33.18
2023-05-18T12:35:48.919Z,32.66
2023-05-18T12:36:48.954Z,31.99
2023-05-18T12:37:48.951Z,31.56
2023-05-18T12:38:48.957Z,31.36
2023-05-18T12:39:48.961Z,31.17
2023-05-18T12:40:49.120Z,30.69
2023-05-18T12:41:48.975Z,30.35
2023-05-18T12:42:48.987Z,30.13
2023-05-18T12:43:49.004Z,29.86
2023-05-18T12:44:49.009Z,29.65
2023-05-18T12:45:49.010Z,29.19
2023-05-18T12:46:49.176Z,28.95
2023-05-18T12:47:49.078Z,28.92
2023-05-18T12:48:49.039Z,29.89
2023-05-18T12:49:49.050Z,30.98
2023-05-18T12:50:49.064Z,31.81
2023-05-18T12:51:49.065Z,32.18
2023-05-18T12:52:49.097Z,31.75
2023-05-18T12:53:49.088Z,31.21
2023-05-18T12:54:49.090Z,30.43
2023-05-18T12:55:49.105Z,29.94
2023-05-18T12:56:49.119Z,29.73
2023-05-18T12:57:49.117Z,29.95
2023-05-18T12:58:49.124Z,30.80